sensor_id;sensor_type;location;lat;lon;timestamp;P1;durP1;ratioP1;P2;durP2;ratioP2
52692;SDS011;68218;51.012;-1.648;2023-03-08T00:00:12;25.75;;;13.25;;
52692;SDS011;68218;51.012;-1.648;2023-03-08T00:02:39;24.98;;;12.23;;
52692;SDS011;68218;51.012;-1.648;2023-03-08T00:05:05;25.73;;;13.30;;
52692;SDS011;68218;51.012;-1.648;2023-03-08T00:07:31;23.05;;;11.98;;
52692;SDS011;68218;51.012;-1.648;2023-03-08T00:09:57;28.15;;;12.73;;
52692;SDS011;68218;51.012;-1.648;2023-03-08T00:12:22;25.70;;;12.45;;
52692;SDS011;68218;51.012;-1.648;2023-03-08T00:14:48;26.05;;;12.38;;
52692;SDS011;68218;51.012;-1.648;2023-03-08T00:17:14;30.00;;;14.13;;
52692;SDS011;68218;51.012;-1.648;2023-03-08T00:22:05;27.38;;;13.38;;
52692;SDS011;68218;51.012;-1.648;2023-03-08T00:24:31;31.00;;;13.63;;
52692;SDS011;68218;51.012;-1.648;2023-03-08T00:26:57;31.50;;;13.40;;
52692;SDS011;68218;51.012;-1.648;2023-03-08T00:29:22;32.30;;;14.80;;
52692;SDS011;68218;51.012;-1.648;2023-03-08T00:31:48;30.13;;;15.00;;
52692;SDS011;68218;51.012;-1.648;2023-03-08T00:34:13;30.67;;;15.90;;
52692;SDS011;68218;51.012;-1.648;2023-03-08T00:36:39;32.97;;;15.65;;
52692;SDS011;68218;51.012;-1.648;2023-03-08T00:39:05;33.97;;;16.88;;
52692;SDS011;68218;51.012;-1.648;2023-03-08T00:41:30;39.13;;;16.80;;
52692;SDS011;68218;51.012;-1.648;2023-03-08T00:43:56;35.95;;;16.52;;
52692;SDS011;68218;51.012;-1.648;2023-03-08T00:46:21;32.70;;;17.67;;
52692;SDS011;68218;51.012;-1.648;2023-03-08T00:48:48;34.72;;;16.50;;
52692;SDS011;68218;51.012;-1.648;2023-03-08T00:51:14;35.03;;;17.83;;
52692;SDS011;68218;51.012;-1.648;2023-03-08T00:53:41;38.85;;;18.50;;
52692;SDS011;68218;51.012;-1.648;2023-03-08T00:58:32;36.38;;;17.55;;
52692;SDS011;68218;51.012;-1.648;2023-03-08T01:00:58;37.65;;;19.33;;
52692;SDS011;68218;51.012;-1.648;2023-03-08T01:05:51;41.58;;;18.75;;
52692;SDS011;68218;51.012;-1.648;2023-03-08T01:08:19;39.28;;;19.83;;
52692;SDS011;68218;51.012;-1.648;2023-03-08T01:10:46;40.85;;;20.67;;
52692;SDS011;68218;51.012;-1.648;2023-03-08T01:13:15;38.00;;;19.88;;
52692;SDS011;68218;51.012;-1.648;2023-03-08T01:15:41;39.28;;;19.27;;
52692;SDS011;68218;51.012;-1.648;2023-03-08T01:18:07;41.05;;;19.90;;
52692;SDS011;68218;51.012;-1.648;2023-03-08T01:20:32;38.67;;;20.27;;
52692;SDS011;68218;51.012;-1.648;2023-03-08T01:22:58;43.45;;;21.02;;
52692;SDS011;68218;51.012;-1.648;2023-03-08T01:25:23;39.28;;;18.95;;
52692;SDS011;68218;51.012;-1.648;2023-03-08T01:27:49;39.88;;;20.33;;
52692;SDS011;68218;51.012;-1.648;2023-03-08T01:30:15;46.95;;;21.17;;
52692;SDS011;68218;51.012;-1.648;2023-03-08T01:32:41;48.55;;;21.27;;
52692;SDS011;68218;51.012;-1.648;2023-03-08T01:35:06;50.92;;;22.67;;
52692;SDS011;68218;51.012;-1.648;2023-03-08T01:37:32;49.20;;;22.65;;
52692;SDS011;68218;51.012;-1.648;2023-03-08T01:42:23;49.65;;;23.13;;
52692;SDS011;68218;51.012;-1.648;2023-03-08T01:44:56;49.05;;;22.35;;
52692;SDS011;68218;51.012;-1.648;2023-03-08T01:47:23;57.63;;;25.75;;
52692;SDS011;68218;51.012;-1.648;2023-03-08T01:49:51;53.40;;;25.05;;
52692;SDS011;68218;51.012;-1.648;2023-03-08T01:52:27;64.03;;;27.33;;
52692;SDS011;68218;51.012;-1.648;2023-03-08T01:54:56;53.13;;;23.98;;
52692;SDS011;68218;51.012;-1.648;2023-03-08T01:57:25;64.55;;;26.52;;
52692;SDS011;68218;51.012;-1.648;2023-03-08T01:59:54;66.53;;;26.02;;
52692;SDS011;68218;51.012;-1.648;2023-03-08T02:02:23;73.88;;;29.67;;
52692;SDS011;68218;51.012;-1.648;2023-03-08T02:04:53;69.30;;;27.00;;
52692;SDS011;68218;51.012;-1.648;2023-03-08T02:07:19;79.68;;;28.98;;
52692;SDS011;68218;51.012;-1.648;2023-03-08T02:09:44;87.82;;;30.13;;
52692;SDS011;68218;51.012;-1.648;2023-03-08T02:12:11;88.18;;;30.08;;
52692;SDS011;68218;51.012;-1.648;2023-03-08T02:17:03;90.67;;;30.67;;
52692;SDS011;68218;51.012;-1.648;2023-03-08T02:19:34;108.32;;;31.30;;
52692;SDS011;68218;51.012;-1.648;2023-03-08T02:22:11;98.18;;;32.20;;
52692;SDS011;68218;51.012;-1.648;2023-03-08T02:24:38;101.22;;;33.60;;
52692;SDS011;68218;51.012;-1.648;2023-03-08T02:27:15;99.80;;;34.83;;
52692;SDS011;68218;51.012;-1.648;2023-03-08T02:29:44;99.72;;;30.92;;
52692;SDS011;68218;51.012;-1.648;2023-03-08T02:32:09;106.88;;;33.45;;
52692;SDS011;68218;51.012;-1.648;2023-03-08T02:34:35;92.18;;;29.52;;
52692;SDS011;68218;51.012;-1.648;2023-03-08T02:37:00;82.15;;;28.35;;
52692;SDS011;68218;51.012;-1.648;2023-03-08T02:39:25;100.88;;;28.60;;
52692;SDS011;68218;51.012;-1.648;2023-03-08T02:41:51;89.88;;;29.73;;
52692;SDS011;68218;51.012;-1.648;2023-03-08T02:44:16;86.57;;;28.90;;
52692;SDS011;68218;51.012;-1.648;2023-03-08T02:46:42;82.20;;;30.52;;
52692;SDS011;68218;51.012;-1.648;2023-03-08T02:49:07;88.47;;;28.23;;
52692;SDS011;68218;51.012;-1.648;2023-03-08T02:51:32;87.28;;;30.20;;
52692;SDS011;68218;51.012;-1.648;2023-03-08T02:53:58;95.93;;;31.85;;
52692;SDS011;68218;51.012;-1.648;2023-03-08T02:56:23;89.97;;;30.02;;
52692;SDS011;68218;51.012;-1.648;2023-03-08T02:58:49;87.75;;;28.88;;
52692;SDS011;68218;51.012;-1.648;2023-03-08T03:01:14;84.68;;;28.85;;
52692;SDS011;68218;51.012;-1.648;2023-03-08T03:03:40;82.10;;;29.10;;
52692;SDS011;68218;51.012;-1.648;2023-03-08T03:06:12;99.35;;;29.38;;
52692;SDS011;68218;51.012;-1.648;2023-03-08T03:08:39;83.35;;;27.60;;
52692;SDS011;68218;51.012;-1.648;2023-03-08T03:11:11;94.63;;;29.00;;
52692;SDS011;68218;51.012;-1.648;2023-03-08T03:16:07;89.20;;;28.67;;
52692;SDS011;68218;51.012;-1.648;2023-03-08T03:18:34;100.15;;;30.65;;
52692;SDS011;68218;51.012;-1.648;2023-03-08T03:21:07;100.88;;;30.90;;
52692;SDS011;68218;51.012;-1.648;2023-03-08T03:23:34;91.65;;;28.40;;
52692;SDS011;68218;51.012;-1.648;2023-03-08T03:26:07;91.47;;;28.00;;
52692;SDS011;68218;51.012;-1.648;2023-03-08T03:28:34;84.38;;;28.20;;
52692;SDS011;68218;51.012;-1.648;2023-03-08T03:31:00;114.68;;;29.98;;
52692;SDS011;68218;51.012;-1.648;2023-03-08T03:33:26;97.75;;;29.10;;
52692;SDS011;68218;51.012;-1.648;2023-03-08T03:35:52;91.32;;;29.52;;
52692;SDS011;68218;51.012;-1.648;2023-03-08T03:38:17;104.10;;;30.70;;
52692;SDS011;68218;51.012;-1.648;2023-03-08T03:40:43;95.95;;;30.58;;
52692;SDS011;68218;51.012;-1.648;2023-03-08T03:43:08;88.90;;;29.20;;
52692;SDS011;68218;51.012;-1.648;2023-03-08T03:45:33;89.82;;;28.73;;
52692;SDS011;68218;51.012;-1.648;2023-03-08T03:47:59;88.10;;;27.25;;
52692;SDS011;68218;51.012;-1.648;2023-03-08T03:50:24;79.10;;;25.00;;
52692;SDS011;68218;51.012;-1.648;2023-03-08T03:52:50;75.75;;;25.83;;
52692;SDS011;68218;51.012;-1.648;2023-03-08T03:55:15;80.15;;;26.85;;
52692;SDS011;68218;51.012;-1.648;2023-03-08T03:57:41;82.82;;;25.45;;
52692;SDS011;68218;51.012;-1.648;2023-03-08T04:00:08;79.45;;;25.70;;
52692;SDS011;68218;51.012;-1.648;2023-03-08T04:02:34;77.50;;;25.02;;
52692;SDS011;68218;51.012;-1.648;2023-03-08T04:05:00;74.15;;;26.33;;
52692;SDS011;68218;51.012;-1.648;2023-03-08T04:07:25;87.60;;;29.90;;
52692;SDS011;68218;51.012;-1.648;2023-03-08T04:09:51;88.72;;;27.95;;
52692;SDS011;68218;51.012;-1.648;2023-03-08T04:12:16;77.85;;;25.90;;
52692;SDS011;68218;51.012;-1.648;2023-03-08T04:14:41;84.82;;;26.42;;
52692;SDS011;68218;51.012;-1.648;2023-03-08T04:17:07;77.18;;;26.65;;
52692;SDS011;68218;51.012;-1.648;2023-03-08T04:19:33;73.03;;;24.90;;
52692;SDS011;68218;51.012;-1.648;2023-03-08T04:21:58;73.82;;;25.85;;
52692;SDS011;68218;51.012;-1.648;2023-03-08T04:24:23;70.05;;;25.67;;
52692;SDS011;68218;51.012;-1.648;2023-03-08T04:26:49;67.55;;;25.25;;
52692;SDS011;68218;51.012;-1.648;2023-03-08T04:29:14;72.50;;;25.02;;
52692;SDS011;68218;51.012;-1.648;2023-03-08T04:31:40;67.55;;;24.67;;
52692;SDS011;68218;51.012;-1.648;2023-03-08T04:34:05;73.55;;;24.17;;
52692;SDS011;68218;51.012;-1.648;2023-03-08T04:36:31;70.05;;;23.90;;
52692;SDS011;68218;51.012;-1.648;2023-03-08T04:38:56;61.97;;;21.60;;
52692;SDS011;68218;51.012;-1.648;2023-03-08T04:41:22;59.92;;;22.70;;
52692;SDS011;68218;51.012;-1.648;2023-03-08T04:43:51;65.53;;;23.25;;
52692;SDS011;68218;51.012;-1.648;2023-03-08T04:46:19;57.15;;;22.20;;
52692;SDS011;68218;51.012;-1.648;2023-03-08T04:48:46;59.90;;;22.05;;
52692;SDS011;68218;51.012;-1.648;2023-03-08T04:51:12;67.35;;;23.40;;
52692;SDS011;68218;51.012;-1.648;2023-03-08T04:53:39;55.58;;;22.38;;
52692;SDS011;68218;51.012;-1.648;2023-03-08T04:56:08;62.17;;;23.73;;
52692;SDS011;68218;51.012;-1.648;2023-03-08T04:58:34;55.90;;;21.98;;
52692;SDS011;68218;51.012;-1.648;2023-03-08T05:01:07;61.20;;;23.05;;
52692;SDS011;68218;51.012;-1.648;2023-03-08T05:03:36;60.77;;;22.90;;
52692;SDS011;68218;51.012;-1.648;2023-03-08T05:06:02;65.68;;;22.98;;
52692;SDS011;68218;51.012;-1.648;2023-03-08T05:08:28;68.97;;;24.30;;
52692;SDS011;68218;51.012;-1.648;2023-03-08T05:10:57;76.53;;;24.95;;
52692;SDS011;68218;51.012;-1.648;2023-03-08T05:13:24;62.83;;;23.38;;
52692;SDS011;68218;51.012;-1.648;2023-03-08T05:15:51;69.38;;;24.67;;
52692;SDS011;68218;51.012;-1.648;2023-03-08T05:18:17;68.57;;;23.90;;
52692;SDS011;68218;51.012;-1.648;2023-03-08T05:20:43;68.18;;;24.30;;
52692;SDS011;68218;51.012;-1.648;2023-03-08T05:23:09;61.35;;;22.30;;
52692;SDS011;68218;51.012;-1.648;2023-03-08T05:25:44;67.38;;;23.50;;
52692;SDS011;68218;51.012;-1.648;2023-03-08T05:28:09;58.17;;;20.85;;
52692;SDS011;68218;51.012;-1.648;2023-03-08T05:30:39;56.47;;;20.33;;
52692;SDS011;68218;51.012;-1.648;2023-03-08T05:33:05;52.47;;;20.70;;
52692;SDS011;68218;51.012;-1.648;2023-03-08T05:35:30;51.50;;;20.80;;
52692;SDS011;68218;51.012;-1.648;2023-03-08T05:37:56;51.88;;;19.45;;
52692;SDS011;68218;51.012;-1.648;2023-03-08T05:40:22;56.95;;;19.98;;
52692;SDS011;68218;51.012;-1.648;2023-03-08T05:42:47;59.05;;;20.10;;
52692;SDS011;68218;51.012;-1.648;2023-03-08T05:45:12;60.08;;;19.10;;
52692;SDS011;68218;51.012;-1.648;2023-03-08T05:47:38;60.22;;;21.10;;
52692;SDS011;68218;51.012;-1.648;2023-03-08T05:50:03;67.35;;;19.33;;
52692;SDS011;68218;51.012;-1.648;2023-03-08T05:52:29;50.38;;;20.17;;
52692;SDS011;68218;51.012;-1.648;2023-03-08T05:54:55;57.10;;;20.20;;
52692;SDS011;68218;51.012;-1.648;2023-03-08T05:57:21;57.65;;;21.27;;
52692;SDS011;68218;51.012;-1.648;2023-03-08T05:59:46;55.05;;;19.63;;
52692;SDS011;68218;51.012;-1.648;2023-03-08T06:02:12;56.08;;;18.98;;
52692;SDS011;68218;51.012;-1.648;2023-03-08T06:04:37;59.60;;;21.58;;
52692;SDS011;68218;51.012;-1.648;2023-03-08T06:07:03;59.03;;;21.20;;
52692;SDS011;68218;51.012;-1.648;2023-03-08T06:09:28;54.67;;;21.02;;
52692;SDS011;68218;51.012;-1.648;2023-03-08T06:11:54;50.63;;;20.63;;
52692;SDS011;68218;51.012;-1.648;2023-03-08T06:14:19;57.78;;;20.90;;
52692;SDS011;68218;51.012;-1.648;2023-03-08T06:16:45;51.08;;;19.60;;
52692;SDS011;68218;51.012;-1.648;2023-03-08T06:19:12;59.95;;;21.15;;
52692;SDS011;68218;51.012;-1.648;2023-03-08T06:21:38;58.25;;;20.65;;
52692;SDS011;68218;51.012;-1.648;2023-03-08T06:24:04;54.15;;;21.02;;
52692;SDS011;68218;51.012;-1.648;2023-03-08T06:26:30;61.70;;;21.42;;
52692;SDS011;68218;51.012;-1.648;2023-03-08T06:28:55;54.08;;;20.98;;
52692;SDS011;68218;51.012;-1.648;2023-03-08T06:31:20;57.10;;;21.25;;
52692;SDS011;68218;51.012;-1.648;2023-03-08T06:33:46;53.40;;;21.50;;
52692;SDS011;68218;51.012;-1.648;2023-03-08T06:36:16;54.63;;;21.00;;
52692;SDS011;68218;51.012;-1.648;2023-03-08T06:38:42;53.58;;;20.30;;
52692;SDS011;68218;51.012;-1.648;2023-03-08T06:41:09;51.58;;;20.25;;
52692;SDS011;68218;51.012;-1.648;2023-03-08T06:43:36;54.00;;;21.55;;
52692;SDS011;68218;51.012;-1.648;2023-03-08T06:46:03;56.22;;;21.25;;
52692;SDS011;68218;51.012;-1.648;2023-03-08T06:48:33;56.30;;;20.48;;
52692;SDS011;68218;51.012;-1.648;2023-03-08T06:50:59;62.50;;;24.67;;
52692;SDS011;68218;51.012;-1.648;2023-03-08T06:53:25;60.55;;;22.85;;
52692;SDS011;68218;51.012;-1.648;2023-03-08T06:55:50;58.47;;;21.45;;
52692;SDS011;68218;51.012;-1.648;2023-03-08T06:58:16;53.92;;;21.13;;
52692;SDS011;68218;51.012;-1.648;2023-03-08T07:00:42;61.05;;;25.13;;
52692;SDS011;68218;51.012;-1.648;2023-03-08T07:03:08;61.25;;;22.00;;
52692;SDS011;68218;51.012;-1.648;2023-03-08T07:05:35;62.00;;;22.92;;
52692;SDS011;68218;51.012;-1.648;2023-03-08T07:08:00;54.42;;;21.52;;
52692;SDS011;68218;51.012;-1.648;2023-03-08T07:10:26;61.83;;;22.35;;
52692;SDS011;68218;51.012;-1.648;2023-03-08T07:12:51;61.47;;;21.77;;
52692;SDS011;68218;51.012;-1.648;2023-03-08T07:15:18;60.58;;;22.13;;
52692;SDS011;68218;51.012;-1.648;2023-03-08T07:17:45;61.60;;;22.63;;
52692;SDS011;68218;51.012;-1.648;2023-03-08T07:20:12;58.55;;;24.13;;
52692;SDS011;68218;51.012;-1.648;2023-03-08T07:22:42;55.00;;;22.17;;
52692;SDS011;68218;51.012;-1.648;2023-03-08T07:25:13;52.28;;;21.10;;
52692;SDS011;68218;51.012;-1.648;2023-03-08T07:27:40;61.38;;;21.60;;
52692;SDS011;68218;51.012;-1.648;2023-03-08T07:30:06;51.55;;;21.83;;
52692;SDS011;68218;51.012;-1.648;2023-03-08T07:32:36;51.35;;;19.77;;
52692;SDS011;68218;51.012;-1.648;2023-03-08T07:35:04;56.42;;;20.80;;
52692;SDS011;68218;51.012;-1.648;2023-03-08T07:37:31;52.67;;;20.05;;
52692;SDS011;68218;51.012;-1.648;2023-03-08T07:39:56;54.33;;;21.50;;
52692;SDS011;68218;51.012;-1.648;2023-03-08T07:42:22;48.38;;;21.58;;
52692;SDS011;68218;51.012;-1.648;2023-03-08T07:44:47;41.67;;;19.30;;
52692;SDS011;68218;51.012;-1.648;2023-03-08T07:47:13;44.92;;;19.20;;
52692;SDS011;68218;51.012;-1.648;2023-03-08T07:49:38;50.97;;;20.17;;
52692;SDS011;68218;51.012;-1.648;2023-03-08T07:52:04;44.80;;;18.92;;
52692;SDS011;68218;51.012;-1.648;2023-03-08T07:54:29;46.80;;;19.17;;
52692;SDS011;68218;51.012;-1.648;2023-03-08T07:56:55;44.97;;;19.45;;
52692;SDS011;68218;51.012;-1.648;2023-03-08T07:59:21;49.65;;;19.80;;
52692;SDS011;68218;51.012;-1.648;2023-03-08T08:01:49;41.38;;;17.58;;
52692;SDS011;68218;51.012;-1.648;2023-03-08T08:04:15;37.88;;;18.25;;
52692;SDS011;68218;51.012;-1.648;2023-03-08T08:06:40;42.22;;;18.15;;
52692;SDS011;68218;51.012;-1.648;2023-03-08T08:09:06;38.13;;;16.83;;
52692;SDS011;68218;51.012;-1.648;2023-03-08T08:11:33;37.45;;;16.92;;
52692;SDS011;68218;51.012;-1.648;2023-03-08T08:13:59;35.78;;;17.70;;
52692;SDS011;68218;51.012;-1.648;2023-03-08T08:16:25;34.10;;;16.33;;
52692;SDS011;68218;51.012;-1.648;2023-03-08T08:18:51;34.55;;;15.38;;
52692;SDS011;68218;51.012;-1.648;2023-03-08T08:21:18;31.17;;;15.05;;
52692;SDS011;68218;51.012;-1.648;2023-03-08T08:23:44;36.80;;;16.92;;
52692;SDS011;68218;51.012;-1.648;2023-03-08T08:26:13;28.83;;;14.00;;
52692;SDS011;68218;51.012;-1.648;2023-03-08T08:28:44;31.88;;;14.70;;
52692;SDS011;68218;51.012;-1.648;2023-03-08T08:31:12;31.35;;;15.00;;
52692;SDS011;68218;51.012;-1.648;2023-03-08T08:33:39;29.15;;;14.82;;
52692;SDS011;68218;51.012;-1.648;2023-03-08T08:36:06;35.55;;;14.65;;
52692;SDS011;68218;51.012;-1.648;2023-03-08T08:38:33;29.58;;;13.50;;
52692;SDS011;68218;51.012;-1.648;2023-03-08T08:41:03;28.48;;;13.02;;
52692;SDS011;68218;51.012;-1.648;2023-03-08T08:43:30;25.77;;;12.13;;
52692;SDS011;68218;51.012;-1.648;2023-03-08T08:45:57;23.02;;;11.50;;
52692;SDS011;68218;51.012;-1.648;2023-03-08T08:48:23;26.88;;;11.43;;
52692;SDS011;68218;51.012;-1.648;2023-03-08T08:50:49;26.63;;;11.98;;
52692;SDS011;68218;51.012;-1.648;2023-03-08T08:53:15;28.60;;;12.00;;
52692;SDS011;68218;51.012;-1.648;2023-03-08T08:55:41;28.00;;;14.38;;
52692;SDS011;68218;51.012;-1.648;2023-03-08T08:58:07;22.85;;;10.45;;
52692;SDS011;68218;51.012;-1.648;2023-03-08T09:00:33;23.45;;;11.30;;
52692;SDS011;68218;51.012;-1.648;2023-03-08T09:02:59;22.17;;;10.60;;
52692;SDS011;68218;51.012;-1.648;2023-03-08T09:05:25;25.42;;;11.52;;
52692;SDS011;68218;51.012;-1.648;2023-03-08T09:10:18;23.27;;;10.50;;
52692;SDS011;68218;51.012;-1.648;2023-03-08T09:12:44;44.88;;;18.73;;
52692;SDS011;68218;51.012;-1.648;2023-03-08T09:15:10;37.85;;;18.58;;
52692;SDS011;68218;51.012;-1.648;2023-03-08T09:17:36;21.42;;;11.45;;
52692;SDS011;68218;51.012;-1.648;2023-03-08T09:20:03;22.40;;;11.73;;
52692;SDS011;68218;51.012;-1.648;2023-03-08T09:22:38;25.75;;;12.05;;
52692;SDS011;68218;51.012;-1.648;2023-03-08T09:25:04;20.58;;;9.23;;
52692;SDS011;68218;51.012;-1.648;2023-03-08T09:27:30;26.30;;;11.38;;
52692;SDS011;68218;51.012;-1.648;2023-03-08T09:29:56;34.90;;;15.30;;
52692;SDS011;68218;51.012;-1.648;2023-03-08T09:32:22;33.90;;;13.63;;
52692;SDS011;68218;51.012;-1.648;2023-03-08T09:34:48;27.42;;;13.13;;
52692;SDS011;68218;51.012;-1.648;2023-03-08T09:37:13;27.23;;;10.65;;
52692;SDS011;68218;51.012;-1.648;2023-03-08T09:39:39;26.15;;;12.85;;
52692;SDS011;68218;51.012;-1.648;2023-03-08T09:42:04;33.22;;;12.65;;
52692;SDS011;68218;51.012;-1.648;2023-03-08T09:47:43;27.63;;;12.07;;
52692;SDS011;68218;51.012;-1.648;2023-03-08T09:53:25;26.33;;;11.05;;
52692;SDS011;68218;51.012;-1.648;2023-03-08T09:55:46;21.27;;;10.43;;
52692;SDS011;68218;51.012;-1.648;2023-03-08T10:01:12;21.10;;;9.27;;
52692;SDS011;68218;51.012;-1.648;2023-03-08T10:03:48;26.70;;;13.07;;
52692;SDS011;68218;51.012;-1.648;2023-03-08T10:09:02;24.23;;;10.15;;
52692;SDS011;68218;51.012;-1.648;2023-03-08T10:12:32;23.67;;;10.23;;
52692;SDS011;68218;51.012;-1.648;2023-03-08T10:14:50;22.80;;;10.10;;
52692;SDS011;68218;51.012;-1.648;2023-03-08T10:17:27;21.70;;;9.88;;
52692;SDS011;68218;51.012;-1.648;2023-03-08T10:20:06;21.48;;;9.45;;
52692;SDS011;68218;51.012;-1.648;2023-03-08T10:22:41;19.30;;;9.82;;
52692;SDS011;68218;51.012;-1.648;2023-03-08T10:27:54;21.95;;;9.63;;
52692;SDS011;68218;51.012;-1.648;2023-03-08T10:30:23;30.88;;;11.20;;
52692;SDS011;68218;51.012;-1.648;2023-03-08T10:32:57;19.98;;;9.05;;
52692;SDS011;68218;51.012;-1.648;2023-03-08T10:35:34;21.15;;;8.40;;
52692;SDS011;68218;51.012;-1.648;2023-03-08T10:38:02;18.98;;;8.13;;
52692;SDS011;68218;51.012;-1.648;2023-03-08T10:40:39;20.90;;;8.95;;
52692;SDS011;68218;51.012;-1.648;2023-03-08T10:43:04;19.80;;;8.40;;
52692;SDS011;68218;51.012;-1.648;2023-03-08T10:45:30;18.15;;;7.88;;
52692;SDS011;68218;51.012;-1.648;2023-03-08T10:50:27;19.25;;;8.40;;
52692;SDS011;68218;51.012;-1.648;2023-03-08T10:52:54;21.30;;;7.85;;
52692;SDS011;68218;51.012;-1.648;2023-03-08T10:55:35;18.73;;;8.10;;
52692;SDS011;68218;51.012;-1.648;2023-03-08T10:58:20;21.23;;;9.93;;
52692;SDS011;68218;51.012;-1.648;2023-03-08T11:00:56;21.08;;;8.90;;
52692;SDS011;68218;51.012;-1.648;2023-03-08T11:03:24;28.65;;;12.85;;
52692;SDS011;68218;51.012;-1.648;2023-03-08T11:05:54;25.13;;;10.52;;
52692;SDS011;68218;51.012;-1.648;2023-03-08T11:08:38;22.45;;;10.43;;
52692;SDS011;68218;51.012;-1.648;2023-03-08T11:11:12;17.40;;;8.38;;
52692;SDS011;68218;51.012;-1.648;2023-03-08T11:13:47;19.77;;;8.73;;
52692;SDS011;68218;51.012;-1.648;2023-03-08T11:29:57;19.42;;;9.85;;
52692;SDS011;68218;51.012;-1.648;2023-03-08T11:35:54;17.77;;;9.13;;
52692;SDS011;68218;51.012;-1.648;2023-03-08T11:38:30;20.23;;;9.43;;
52692;SDS011;68218;51.012;-1.648;2023-03-08T11:46:38;18.33;;;9.05;;
52692;SDS011;68218;51.012;-1.648;2023-03-08T11:54:44;19.40;;;8.90;;
52692;SDS011;68218;51.012;-1.648;2023-03-08T11:57:13;19.42;;;9.07;;
52692;SDS011;68218;51.012;-1.648;2023-03-08T11:59:43;19.63;;;9.73;;
52692;SDS011;68218;51.012;-1.648;2023-03-08T12:10:41;21.77;;;10.18;;
52692;SDS011;68218;51.012;-1.648;2023-03-08T12:29:20;35.55;;;14.05;;
52692;SDS011;68218;51.012;-1.648;2023-03-08T12:32:01;23.95;;;10.15;;
52692;SDS011;68218;51.012;-1.648;2023-03-08T12:34:35;18.77;;;9.80;;
52692;SDS011;68218;51.012;-1.648;2023-03-08T12:37:25;25.40;;;13.02;;
52692;SDS011;68218;51.012;-1.648;2023-03-08T12:39:55;33.53;;;18.90;;
52692;SDS011;68218;51.012;-1.648;2023-03-08T12:42:32;21.27;;;11.73;;
52692;SDS011;68218;51.012;-1.648;2023-03-08T12:45:06;19.38;;;9.23;;
52692;SDS011;68218;51.012;-1.648;2023-03-08T12:47:54;20.33;;;9.82;;
52692;SDS011;68218;51.012;-1.648;2023-03-08T12:50:41;19.02;;;9.52;;
52692;SDS011;68218;51.012;-1.648;2023-03-08T12:53:23;19.55;;;9.98;;
52692;SDS011;68218;51.012;-1.648;2023-03-08T12:56:02;22.03;;;10.73;;
52692;SDS011;68218;51.012;-1.648;2023-03-08T12:58:50;34.28;;;15.00;;
52692;SDS011;68218;51.012;-1.648;2023-03-08T13:01:22;25.48;;;12.30;;
52692;SDS011;68218;51.012;-1.648;2023-03-08T13:03:54;30.23;;;14.23;;
52692;SDS011;68218;51.012;-1.648;2023-03-08T13:08:51;29.13;;;14.48;;
52692;SDS011;68218;51.012;-1.648;2023-03-08T13:11:22;35.05;;;17.73;;
52692;SDS011;68218;51.012;-1.648;2023-03-08T13:13:59;38.88;;;19.50;;
52692;SDS011;68218;51.012;-1.648;2023-03-08T13:30:23;27.83;;;13.73;;
52692;SDS011;68218;51.012;-1.648;2023-03-08T13:32:48;27.77;;;13.82;;
52692;SDS011;68218;51.012;-1.648;2023-03-08T13:37:41;48.15;;;30.13;;
52692;SDS011;68218;51.012;-1.648;2023-03-08T13:40:14;36.15;;;21.42;;
52692;SDS011;68218;51.012;-1.648;2023-03-08T13:45:23;24.50;;;14.50;;
52692;SDS011;68218;51.012;-1.648;2023-03-08T13:47:49;25.23;;;13.10;;
52692;SDS011;68218;51.012;-1.648;2023-03-08T13:50:57;27.85;;;13.55;;
52692;SDS011;68218;51.012;-1.648;2023-03-08T13:53:08;26.10;;;11.65;;
52692;SDS011;68218;51.012;-1.648;2023-03-08T13:55:38;23.40;;;10.77;;
52692;SDS011;68218;51.012;-1.648;2023-03-08T13:58:12;33.33;;;14.13;;
52692;SDS011;68218;51.012;-1.648;2023-03-08T14:01:01;46.42;;;22.05;;
52692;SDS011;68218;51.012;-1.648;2023-03-08T14:03:28;30.90;;;13.88;;
52692;SDS011;68218;51.012;-1.648;2023-03-08T14:05:55;25.88;;;12.25;;
52692;SDS011;68218;51.012;-1.648;2023-03-08T14:08:22;35.25;;;18.95;;
52692;SDS011;68218;51.012;-1.648;2023-03-08T14:10:51;47.10;;;32.58;;
52692;SDS011;68218;51.012;-1.648;2023-03-08T14:13:27;44.58;;;31.17;;
52692;SDS011;68218;51.012;-1.648;2023-03-08T14:15:57;38.50;;;23.98;;
52692;SDS011;68218;51.012;-1.648;2023-03-08T14:18:30;22.35;;;11.70;;
52692;SDS011;68218;51.012;-1.648;2023-03-08T14:23:32;27.42;;;14.02;;
52692;SDS011;68218;51.012;-1.648;2023-03-08T14:26:05;27.48;;;13.55;;
52692;SDS011;68218;51.012;-1.648;2023-03-08T14:28:35;26.63;;;12.63;;
52692;SDS011;68218;51.012;-1.648;2023-03-08T14:31:27;33.88;;;15.75;;
52692;SDS011;68218;51.012;-1.648;2023-03-08T14:33:57;22.33;;;10.60;;
52692;SDS011;68218;51.012;-1.648;2023-03-08T14:36:25;24.73;;;13.82;;
52692;SDS011;68218;51.012;-1.648;2023-03-08T14:38:53;36.25;;;17.13;;
52692;SDS011;68218;51.012;-1.648;2023-03-08T14:41:28;42.95;;;23.70;;
52692;SDS011;68218;51.012;-1.648;2023-03-08T14:43:57;36.67;;;20.13;;
52692;SDS011;68218;51.012;-1.648;2023-03-08T14:48:59;32.15;;;14.65;;
52692;SDS011;68218;51.012;-1.648;2023-03-08T14:51:35;31.42;;;15.43;;
52692;SDS011;68218;51.012;-1.648;2023-03-08T14:54:05;36.72;;;21.27;;
52692;SDS011;68218;51.012;-1.648;2023-03-08T14:56:44;37.38;;;22.02;;
52692;SDS011;68218;51.012;-1.648;2023-03-08T14:59:10;30.02;;;17.83;;
52692;SDS011;68218;51.012;-1.648;2023-03-08T15:04:05;31.33;;;15.10;;
52692;SDS011;68218;51.012;-1.648;2023-03-08T15:06:40;32.03;;;18.83;;
52692;SDS011;68218;51.012;-1.648;2023-03-08T15:09:06;28.05;;;16.13;;
52692;SDS011;68218;51.012;-1.648;2023-03-08T15:11:32;36.72;;;24.30;;
52692;SDS011;68218;51.012;-1.648;2023-03-08T15:13:59;41.03;;;20.60;;
52692;SDS011;68218;51.012;-1.648;2023-03-08T15:16:24;55.08;;;26.02;;
52692;SDS011;68218;51.012;-1.648;2023-03-08T15:18:50;34.38;;;18.48;;
52692;SDS011;68218;51.012;-1.648;2023-03-08T15:21:17;49.97;;;24.67;;
52692;SDS011;68218;51.012;-1.648;2023-03-08T15:23:46;54.33;;;27.13;;
52692;SDS011;68218;51.012;-1.648;2023-03-08T15:26:13;41.10;;;20.95;;
52692;SDS011;68218;51.012;-1.648;2023-03-08T15:28:44;41.42;;;22.20;;
52692;SDS011;68218;51.012;-1.648;2023-03-08T15:31:10;34.33;;;17.02;;
52692;SDS011;68218;51.012;-1.648;2023-03-08T15:33:35;29.38;;;14.88;;
52692;SDS011;68218;51.012;-1.648;2023-03-08T15:36:01;32.42;;;17.00;;
52692;SDS011;68218;51.012;-1.648;2023-03-08T15:38:26;29.40;;;16.90;;
52692;SDS011;68218;51.012;-1.648;2023-03-08T15:40:52;40.28;;;21.15;;
52692;SDS011;68218;51.012;-1.648;2023-03-08T15:43:17;35.35;;;19.23;;
52692;SDS011;68218;51.012;-1.648;2023-03-08T15:45:43;30.23;;;17.23;;
52692;SDS011;68218;51.012;-1.648;2023-03-08T15:48:12;33.17;;;16.70;;
52692;SDS011;68218;51.012;-1.648;2023-03-08T15:50:39;47.70;;;25.70;;
52692;SDS011;68218;51.012;-1.648;2023-03-08T15:53:06;34.00;;;19.00;;
52692;SDS011;68218;51.012;-1.648;2023-03-08T15:55:33;43.42;;;26.30;;
52692;SDS011;68218;51.012;-1.648;2023-03-08T15:58:00;48.85;;;27.50;;
52692;SDS011;68218;51.012;-1.648;2023-03-08T16:00:26;41.70;;;23.60;;
52692;SDS011;68218;51.012;-1.648;2023-03-08T16:02:51;33.30;;;16.80;;
52692;SDS011;68218;51.012;-1.648;2023-03-08T16:05:18;44.00;;;25.98;;
52692;SDS011;68218;51.012;-1.648;2023-03-08T16:07:46;32.60;;;16.27;;
52692;SDS011;68218;51.012;-1.648;2023-03-08T16:10:16;35.42;;;18.98;;